Time;durP1;ratioP1;P1;durP2;ratioP2;P2;SDS_P1;SDS_P2;PMS_P1;PMS_P2;Temp;Humidity;BMP_temperature;BMP_pressure;BME280_temperature;BME280_humidity;BME280_pressure;Samples;Min_cycle;Max_cycle;Signal;HPM_P1;HPM_P2
2023/10/14 00:01:15;;;;;;;;;;;;;;;20.58;40.38;101015.74;105474;1300;66994;-89
2023/10/14 00:03:50;;;;;;;;;;;;;;;20.58;40.30;101019.79;105423;1299;74313;-89
2023/10/14 00:06:17;;;;;;;;;;;;;;;20.57;40.50;101015.38;105539;1299;82138;-89
2023/10/14 00:08:57;;;;;;;;;;;;;;;20.57;40.40;101014.98;105549;1300;72685;-89
2023/10/14 00:11:23;;;;;;;;;;;;;;;20.57;40.38;101012.26;105452;1299;66872;-89
2023/10/14 00:13:49;;;;;;;;;;;;;;;20.57;40.48;101008.73;105470;1300;67038;-88
2023/10/14 00:16:29;;;;;;;;;;;;;;;20.57;40.30;101009.04;105603;1299;66225;-89
2023/10/14 00:18:55;;;;;;;;;;;;;;;20.57;40.34;101006.18;105479;1300;82329;-89
2023/10/14 00:21:23;;;;;;;;;;;;;;;20.57;40.44;101002.80;105495;1299;66892;-89
2023/10/14 00:23:50;;;;;;;;;;;;;;;20.56;40.54;101004.73;105369;1300;67032;-89
2023/10/14 00:26:16;;;;;;;;;;;;;;;20.56;40.44;101007.09;105378;1300;66343;-89
2023/10/14 00:28:45;;;;;;;;;;;;;;;20.56;40.32;101003.98;105496;1299;67208;-89
2023/10/14 00:31:11;;;;;;;;;;;;;;;20.56;40.45;101001.31;105502;1299;83136;-89
2023/10/14 00:33:37;;;;;;;;;;;;;;;20.56;40.50;100996.40;105411;1300;66452;-89
2023/10/14 00:36:03;;;;;;;;;;;;;;;20.56;40.43;100997.48;105457;1299;67600;-89
2023/10/14 00:38:34;;;;;;;;;;;;;;;20.56;40.32;100996.20;105414;1302;66292;-89
2023/10/14 00:41:00;;;;;;;;;;;;;;;20.55;40.36;100996.13;105440;1303;74432;-89
2023/10/14 00:43:25;;;;;;;;;;;;;;;20.56;40.52;100996.19;105518;1296;67114;-88
2023/10/14 00:45:52;;;;;;;;;;;;;;;20.55;40.33;100993.42;105448;1291;66987;-88
2023/10/14 00:51:04;;;;;;;;;;;;;;;20.54;40.52;100991.68;105447;1300;66253;-89
2023/10/14 00:53:30;;;;;;;;;;;;;;;20.54;40.55;100985.44;105554;1299;75604;-89
2023/10/14 00:55:56;;;;;;;;;;;;;;;20.54;40.49;100979.41;105528;1300;67177;-88
2023/10/14 00:58:28;;;;;;;;;;;;;;;20.54;40.30;100979.26;105450;1300;67022;-89
2023/10/14 01:00:59;;;;;;;;;;;;;;;20.54;40.50;100981.50;105606;1296;67788;-88
2023/10/14 01:03:33;;;;;;;;;;;;;;;20.54;40.38;100984.67;105586;1294;67036;31
2023/10/14 01:06:06;;;;;;;;;;;;;;;20.53;40.49;100984.92;105519;1300;75485;-89
2023/10/14 01:08:37;;;;;;;;;;;;;;;20.54;40.63;100979.45;105583;1299;81475;-89
2023/10/14 01:11:03;;;;;;;;;;;;;;;20.53;40.37;100978.98;105739;1299;72550;-89
2023/10/14 01:13:29;;;;;;;;;;;;;;;20.54;40.38;100979.20;105555;1300;68238;-88
2023/10/14 01:16:03;;;;;;;;;;;;;;;20.53;40.56;100976.27;105586;1296;67429;-88
2023/10/14 01:18:34;;;;;;;;;;;;;;;20.53;40.53;100977.40;105625;1299;74370;-89
2023/10/14 01:21:00;;;;;;;;;;;;;;;20.53;40.51;100973.86;105488;1300;82201;-88
2023/10/14 01:23:26;;;;;;;;;;;;;;;20.52;40.55;100973.51;105593;1297;67337;-88
2023/10/14 01:25:52;;;;;;;;;;;;;;;20.52;40.61;100971.26;105550;1297;67081;-89
2023/10/14 01:28:29;;;;;;;;;;;;;;;20.52;40.52;100965.23;105475;1300;67715;-88
2023/10/14 01:31:25;;;;;;;;;;;;;;;20.52;40.61;100969.10;105588;1299;74448;-88
2023/10/14 01:33:50;;;;;;;;;;;;;;;20.52;40.41;100961.48;105636;1300;83147;-88
2023/10/14 01:38:51;;;;;;;;;;;;;;;20.51;40.58;100963.84;105567;1299;67276;-88
2023/10/14 01:41:17;;;;;;;;;;;;;;;20.52;40.59;100961.02;105641;1297;66897;-88
2023/10/14 01:43:42;;;;;;;;;;;;;;;20.51;40.47;100960.40;105606;1299;66571;-88
2023/10/14 01:46:10;;;;;;;;;;;;;;;20.51;40.68;100960.40;105636;1297;66640;-88
2023/10/14 01:48:39;;;;;;;;;;;;;;;20.51;40.60;100959.23;105672;1291;67213;-88
2023/10/14 01:51:04;;;;;;;;;;;;;;;20.50;40.74;100949.21;105622;1299;66424;-88
2023/10/14 01:53:34;;;;;;;;;;;;;;;20.50;40.62;100952.02;105699;1297;66311;-88
2023/10/14 01:56:00;;;;;;;;;;;;;;;20.51;40.45;100948.39;105530;1301;74476;-88
2023/10/14 02:03:43;;;;;;;;;;;;;;;20.50;40.58;100943.77;105507;1299;66978;-89
2023/10/14 02:08:36;;;;;;;;;;;;;;;20.49;40.47;100942.91;105585;1297;73781;-88
2023/10/14 02:11:02;;;;;;;;;;;;;;;20.50;40.56;100944.50;105661;1298;66369;-88
2023/10/14 02:13:28;;;;;;;;;;;;;;;20.49;40.63;100940.45;105669;1299;67200;-88
2023/10/14 02:15:59;;;;;;;;;;;;;;;20.49;40.56;100938.92;105615;1298;67079;-88
2023/10/14 02:18:24;;;;;;;;;;;;;;;20.49;40.74;100936.36;105520;1300;67011;-89
2023/10/14 02:23:44;;;;;;;;;;;;;;;20.48;40.45;100932.62;105542;1299;80116;-88
2023/10/14 02:26:12;;;;;;;;;;;;;;;20.49;40.54;100929.45;105518;1299;72339;-88
2023/10/14 02:28:41;;;;;;;;;;;;;;;20.48;40.55;100930.63;105500;1299;66963;-88
2023/10/14 02:31:16;;;;;;;;;;;;;;;20.48;40.73;100924.23;105618;1299;67016;-88
2023/10/14 02:33:45;;;;;;;;;;;;;;;20.48;40.42;100924.44;105612;1299;74826;-88
2023/10/14 02:36:14;;;;;;;;;;;;;;;20.48;40.56;100928.73;105613;1298;82812;-89
2023/10/14 02:38:40;;;;;;;;;;;;;;;20.47;40.53;100925.76;105531;1297;72414;-88
2023/10/14 02:41:05;;;;;;;;;;;;;;;20.47;40.51;100924.89;105616;1298;66953;-88
2023/10/14 02:43:31;;;;;;;;;;;;;;;20.47;40.65;100922.23;105603;1299;66990;-88
2023/10/14 02:46:00;;;;;;;;;;;;;;;20.47;40.63;100918.35;105520;1299;67198;-88
2023/10/14 02:48:49;;;;;;;;;;;;;;;20.47;40.55;100913.03;105502;1300;66919;-88
2023/10/14 02:51:16;;;;;;;;;;;;;;;20.47;40.52;100906.85;105500;1299;72616;-88
2023/10/14 02:53:44;;;;;;;;;;;;;;;20.46;40.57;100907.36;105558;1299;66859;-88
2023/10/14 02:56:20;;;;;;;;;;;;;;;20.46;40.61;100909.30;105604;1300;66234;-88
2023/10/14 02:58:46;;;;;;;;;;;;;;;20.46;40.55;100908.02;105585;1297;74269;-88
2023/10/14 03:01:12;;;;;;;;;;;;;;;20.46;40.50;100909.70;105517;1297;67171;-88
2023/10/14 03:03:42;;;;;;;;;;;;;;;20.46;40.51;100909.66;105486;1299;67194;-88
2023/10/14 03:06:08;;;;;;;;;;;;;;;20.46;40.54;100910.93;105635;1299;66959;-89
2023/10/14 03:08:34;;;;;;;;;;;;;;;20.46;40.54;100910.23;105559;1298;67215;-88
2023/10/14 03:11:00;;;;;;;;;;;;;;;20.46;40.52;100905.57;105593;1298;66300;-89
2023/10/14 03:13:29;;;;;;;;;;;;;;;20.45;40.60;100907.91;105610;1298;66966;-88
2023/10/14 03:15:54;;;;;;;;;;;;;;;20.45;40.70;100907.86;105586;1298;73503;-88
2023/10/14 03:18:20;;;;;;;;;;;;;;;20.45;40.59;100908.67;105600;1297;66897;-89
2023/10/14 03:23:32;;;;;;;;;;;;;;;20.45;40.59;100907.15;105337;1302;74389;-89
2023/10/14 03:26:10;;;;;;;;;;;;;;;20.44;40.44;100904.69;105335;1303;82299;-88
2023/10/14 03:28:37;;;;;;;;;;;;;;;20.44;40.59;100906.63;105280;1304;72698;-88
2023/10/14 03:31:07;;;;;;;;;;;;;;;20.44;40.67;100900.33;105288;1303;66859;-88
2023/10/14 03:33:42;;;;;;;;;;;;;;;20.44;40.61;100899.64;105301;1303;66941;-89
2023/10/14 03:36:07;;;;;;;;;;;;;;;20.43;40.55;100897.02;105294;1303;75530;-89
2023/10/14 03:41:10;;;;;;;;;;;;;;;20.44;40.61;100899.00;105319;1303;73240;-88
2023/10/14 03:44:22;;;;;;;;;;;;;;;20.43;40.63;100895.98;105126;1303;67635;-88
2023/10/14 03:46:35;;;;;;;;;;;;;;;20.43;40.58;100897.06;105071;1303;67532;-88
2023/10/14 03:49:06;;;;;;;;;;;;;;;20.43;40.53;100899.77;105419;1297;75823;-88
2023/10/14 03:51:31;;;;;;;;;;;;;;;20.42;40.57;100898.70;105568;1299;82135;-88
2023/10/14 03:53:57;;;;;;;;;;;;;;;20.42;40.62;100897.56;105586;1299;67033;-89
2023/10/14 03:56:26;;;;;;;;;;;;;;;20.42;40.64;100896.80;105549;1299;67329;-88
2023/10/14 03:58:55;;;;;;;;;;;;;;;20.42;40.62;100894.03;105439;1299;67029;-88
2023/10/14 04:01:23;;;;;;;;;;;;;;;20.42;40.78;100889.79;105512;1300;75344;-88
2023/10/14 04:03:52;;;;;;;;;;;;;;;20.42;40.67;100887.80;105614;1298;82275;-88
2023/10/14 04:06:19;;;;;;;;;;;;;;;20.42;40.74;100885.86;105577;1300;73618;-88
2023/10/14 04:08:54;;;;;;;;;;;;;;;20.42;40.61;100884.83;105443;1300;67261;-92
2023/10/14 04:11:25;;;;;;;;;;;;;;;20.42;40.46;100881.30;105551;1299;67635;-89
2023/10/14 04:14:04;;;;;;;;;;;;;;;20.41;40.60;100877.73;105582;1300;74457;-88
2023/10/14 04:17:09;;;;;;;;;;;;;;;20.41;40.46;100877.00;105612;1301;82194;-88
2023/10/14 04:19:26;;;;;;;;;;;;;;;20.41;40.76;100881.18;105593;1299;73303;-89
2023/10/14 04:22:03;;;;;;;;;;;;;;;20.41;40.55;100881.64;105599;1299;66851;-90
2023/10/14 04:29:50;;;;;;;;;;;;;;;20.40;40.82;100888.80;105517;1299;82301;-89
2023/10/14 04:32:17;;;;;;;;;;;;;;;20.40;40.69;100885.13;105350;1299;73221;-89
2023/10/14 04:34:49;;;;;;;;;;;;;;;20.40;40.43;100887.37;105537;1300;67671;-89
2023/10/14 04:37:20;;;;;;;;;;;;;;;20.39;40.78;100883.79;105489;1300;66896;-89
2023/10/14 04:39:45;;;;;;;;;;;;;;;20.39;40.68;100888.85;105518;1300;75364;-89
2023/10/14 04:44:54;;;;;;;;;;;;;;;20.39;40.65;100902.13;105489;1299;72363;-89
2023/10/14 04:47:19;;;;;;;;;;;;;;;20.39;40.63;100901.15;105419;1299;67027;-89
2023/10/14 04:49:52;;;;;;;;;;;;;;;20.39;40.58;100899.16;105527;1300;67167;-89
2023/10/14 04:52:18;;;;;;;;;;;;;;;20.38;40.61;100894.20;105542;1299;74602;-89
2023/10/14 04:55:00;;;;;;;;;;;;;;;20.39;40.59;100898.45;105560;1299;66819;-89
2023/10/14 04:57:25;;;;;;;;;;;;;;;20.38;40.66;100902.33;105509;1299;72775;-89
2023/10/14 04:59:54;;;;;;;;;;;;;;;20.38;40.71;100903.39;105490;1301;67152;-89
2023/10/14 05:02:24;;;;;;;;;;;;;;;20.38;40.69;100900.17;105414;1301;67149;-89
2023/10/14 05:05:06;;;;;;;;;;;;;;;20.37;40.64;100902.10;105412;1300;76634;-89
2023/10/14 05:07:32;;;;;;;;;;;;;;;20.38;40.76;100900.43;105511;1300;82108;-89
2023/10/14 05:10:05;;;;;;;;;;;;;;;20.38;40.77;100902.42;105423;1300;66748;-89
2023/10/14 05:12:30;;;;;;;;;;;;;;;20.37;40.53;100901.09;105470;1300;66936;-88
2023/10/14 05:14:56;;;;;;;;;;;;;;;20.37;40.66;100902.36;105544;1300;67221;-89
2023/10/14 05:19:58;;;;;;;;;;;;;;;20.38;40.63;100907.73;105524;1298;81446;-89
2023/10/14 05:22:37;;;;;;;;;;;;;;;20.38;40.44;100907.48;105503;1299;73304;-89
2023/10/14 05:25:08;;;;;;;;;;;;;;;20.38;40.71;100911.11;105602;1299;67113;-89
2023/10/14 05:27:46;;;;;;;;;;;;;;;20.37;40.68;100911.92;105548;1299;66297;-89
2023/10/14 05:30:15;;;;;;;;;;;;;;;20.37;40.88;100917.39;105518;1299;74465;-89
2023/10/14 05:32:43;;;;;;;;;;;;;;;20.38;40.63;100918.02;105453;1300;82188;-89
2023/10/14 05:35:09;;;;;;;;;;;;;;;20.38;40.68;100924.50;105378;1300;72579;-89
2023/10/14 05:37:35;;;;;;;;;;;;;;;20.38;40.73;100925.16;105525;1299;66341;-89
2023/10/14 05:40:01;;;;;;;;;;;;;;;20.38;40.64;100927.12;105562;1300;67468;-89
2023/10/14 05:42:27;;;;;;;;;;;;;;;20.40;40.79;100929.22;105556;1300;66967;-89
2023/10/14 05:45:01;;;;;;;;;;;;;;;20.40;40.77;100929.13;105448;1300;66953;-89
2023/10/14 05:47:31;;;;;;;;;;;;;;;20.41;40.54;100926.17;105546;1300;73098;-92
2023/10/14 05:49:57;;;;;;;;;;;;;;;20.42;40.48;100930.13;105289;1300;368523;-89
2023/10/14 05:52:24;;;;;;;;;;;;;;;20.43;40.57;100928.03;105560;1299;67050;-89
2023/10/14 05:54:50;;;;;;;;;;;;;;;20.45;40.72;100930.45;105452;1299;67067;-89
2023/10/14 05:57:17;;;;;;;;;;;;;;;20.46;40.52;100934.86;105535;1299;66973;-89
2023/10/14 05:59:43;;;;;;;;;;;;;;;20.47;40.50;100932.15;105562;1300;68360;-89
2023/10/14 06:02:12;;;;;;;;;;;;;;;20.48;40.61;100931.54;105493;1299;67080;-89
2023/10/14 06:04:55;;;;;;;;;;;;;;;20.48;40.62;100930.20;105609;1299;66680;-88
2023/10/14 06:07:21;;;;;;;;;;;;;;;20.49;40.66;100934.25;105576;1299;66363;-89
2023/10/14 06:09:47;;;;;;;;;;;;;;;20.49;40.49;100931.91;105480;1296;67312;-89
2023/10/14 06:12:13;;;;;;;;;;;;;;;20.49;40.62;100928.95;105587;1296;66878;-89
2023/10/14 06:14:39;;;;;;;;;;;;;;;20.50;40.61;100928.85;105596;1293;66516;-89
2023/10/14 06:17:05;;;;;;;;;;;;;;;20.51;40.53;100929.99;105618;1299;67015;-89
2023/10/14 06:19:31;;;;;;;;;;;;;;;20.51;40.53;100921.66;105573;1297;81303;-89
2023/10/14 06:21:56;;;;;;;;;;;;;;;20.51;40.46;100925.13;105524;1299;67184;-88
2023/10/14 06:24:23;;;;;;;;;;;;;;;20.52;40.44;100921.46;105598;1297;67126;-88
2023/10/14 06:26:48;;;;;;;;;;;;;;;20.53;40.40;100921.94;105527;1298;67720;-88
2023/10/14 06:29:23;;;;;;;;;;;;;;;20.54;40.51;100918.27;105573;1293;66998;31
2023/10/14 06:31:48;;;;;;;;;;;;;;;20.55;40.49;100917.82;105607;1300;81399;-88
2023/10/14 06:34:14;;;;;;;;;;;;;;;20.56;40.47;100916.64;105498;1299;67698;-89
2023/10/14 06:36:44;;;;;;;;;;;;;;;20.57;40.40;100916.35;105549;1299;66587;-89
2023/10/14 06:39:26;;;;;;;;;;;;;;;20.58;40.41;100910.84;105574;1296;68122;-87
2023/10/14 06:41:56;;;;;;;;;;;;;;;20.59;40.37;100902.40;105446;1300;74531;-90
2023/10/14 06:44:26;;;;;;;;;;;;;;;20.60;40.34;100904.20;105554;1300;67071;-90
2023/10/14 06:46:53;;;;;;;;;;;;;;;20.61;40.53;100903.34;105467;1300;72634;-89
2023/10/14 06:49:22;;;;;;;;;;;;;;;20.62;40.40;100906.05;105471;1299;67007;-90
2023/10/14 06:51:51;;;;;;;;;;;;;;;20.63;40.46;100902.55;105472;1298;67249;-89
2023/10/14 06:54:25;;;;;;;;;;;;;;;20.65;40.49;100901.17;105543;1300;74736;-89
2023/10/14 06:56:54;;;;;;;;;;;;;;;20.65;40.43;100902.66;105502;1301;83387;-89
2023/10/14 06:59:19;;;;;;;;;;;;;;;20.66;40.38;100901.96;105502;1299;72417;-89
2023/10/14 07:01:45;;;;;;;;;;;;;;;20.67;40.49;100902.94;105476;1299;67105;-88
2023/10/14 07:04:16;;;;;;;;;;;;;;;20.68;40.27;100902.95;105552;1300;67625;-89
2023/10/14 07:06:47;;;;;;;;;;;;;;;20.69;40.19;100902.02;105535;1299;74556;-89
2023/10/14 07:09:23;;;;;;;;;;;;;;;20.70;40.24;100899.89;105532;1299;82980;-88
2023/10/14 07:11:48;;;;;;;;;;;;;;;20.70;40.19;100900.61;105526;1299;72665;-89
2023/10/14 07:14:14;;;;;;;;;;;;;;;20.70;40.42;100898.09;105552;1299;67804;-89
2023/10/14 07:16:40;;;;;;;;;;;;;;;20.70;40.30;100902.14;105534;1299;67248;-89
2023/10/14 07:19:05;;;;;;;;;;;;;;;20.70;40.30;100904.44;105604;1299;67067;-89
2023/10/14 07:21:31;;;;;;;;;;;;;;;20.70;40.35;100898.83;105525;1299;66328;-89
2023/10/14 07:24:05;;;;;;;;;;;;;;;20.69;40.42;100898.56;105481;1300;67187;-89
2023/10/14 07:26:31;;;;;;;;;;;;;;;20.69;40.21;100901.11;105545;1300;66866;-89
2023/10/14 07:29:10;;;;;;;;;;;;;;;20.70;40.30;100904.80;105535;1299;74518;-92
2023/10/14 07:31:36;;;;;;;;;;;;;;;20.69;40.28;100900.45;105479;1299;82247;-89
2023/10/14 07:34:08;;;;;;;;;;;;;;;20.69;40.35;100896.61;105426;1300;66983;-89
2023/10/14 07:36:34;;;;;;;;;;;;;;;20.70;40.39;100896.92;105458;1300;66994;-89
2023/10/14 07:39:27;;;;;;;;;;;;;;;20.70;40.10;100899.48;105493;1300;66900;-89
2023/10/14 07:41:52;;;;;;;;;;;;;;;20.70;40.22;100892.58;105488;1299;74482;-89
2023/10/14 07:44:18;;;;;;;;;;;;;;;20.70;40.36;100889.36;105537;1299;82293;-88
2023/10/14 07:46:43;;;;;;;;;;;;;;;20.70;40.15;100888.54;105386;1300;66972;-89
2023/10/14 07:49:09;;;;;;;;;;;;;;;20.70;40.21;100887.27;105558;1296;67069;-89
2023/10/14 07:51:34;;;;;;;;;;;;;;;20.70;40.25;100889.82;105488;1299;66397;-89
2023/10/14 07:54:00;;;;;;;;;;;;;;;20.70;40.28;100886.18;105636;1299;67078;-89
2023/10/14 07:56:25;;;;;;;;;;;;;;;20.71;40.03;100888.79;105613;1298;72539;-89
2023/10/14 07:59:01;;;;;;;;;;;;;;;20.71;40.40;100885.72;105540;1300;67145;-92
2023/10/14 08:01:26;;;;;;;;;;;;;;;20.71;40.11;100882.19;105633;1302;66204;-90
2023/10/14 08:03:56;;;;;;;;;;;;;;;20.71;40.19;100880.50;105491;1298;67126;-89
2023/10/14 08:06:22;;;;;;;;;;;;;;;20.71;40.26;100878.25;105595;1297;82222;-89
2023/10/14 08:08:48;;;;;;;;;;;;;;;20.71;40.20;100875.19;105616;1296;67020;-89
2023/10/14 08:11:14;;;;;;;;;;;;;;;20.71;40.18;100872.12;105658;1297;66395;-89
2023/10/14 08:13:40;;;;;;;;;;;;;;;20.72;40.26;100871.36;105460;1299;67011;-89
2023/10/14 08:16:07;;;;;;;;;;;;;;;20.72;40.22;100866.20;105540;1300;66956;-89
2023/10/14 08:18:33;;;;;;;;;;;;;;;20.72;40.19;100862.98;105455;1299;67359;-89
2023/10/14 08:21:00;;;;;;;;;;;;;;;20.73;40.18;100859.82;105486;1299;67821;-89
2023/10/14 08:23:26;;;;;;;;;;;;;;;20.73;40.05;100860.63;105533;1298;67716;-89
2023/10/14 08:25:54;;;;;;;;;;;;;;;20.74;40.23;100860.89;105627;1299;66332;-90
2023/10/14 08:28:23;;;;;;;;;;;;;;;20.74;40.07;100859.92;105630;1297;66885;-89
2023/10/14 08:30:50;;;;;;;;;;;;;;;20.74;40.14;100854.91;105530;1300;82363;-88
2023/10/14 08:33:18;;;;;;;;;;;;;;;20.75;40.18;100856.15;105537;1299;72722;-89
2023/10/14 08:35:45;;;;;;;;;;;;;;;20.75;40.13;100852.11;105479;1296;67443;-89
2023/10/14 08:38:12;;;;;;;;;;;;;;;20.76;40.28;100849.36;105542;1300;67330;-89
2023/10/14 08:43:22;;;;;;;;;;;;;;;20.77;40.01;100843.36;105497;1300;82402;-89
2023/10/14 08:45:48;;;;;;;;;;;;;;;20.78;40.13;100837.95;105509;1300;67051;-88
2023/10/14 08:48:15;;;;;;;;;;;;;;;20.78;40.09;100836.20;105467;1300;68492;-89
2023/10/14 08:50:41;;;;;;;;;;;;;;;20.78;40.20;100831.55;105465;1298;66934;-88
2023/10/14 08:53:07;;;;;;;;;;;;;;;20.79;40.10;100830.17;105648;1292;67205;-88
2023/10/14 08:55:52;;;;;;;;;;;;;;;20.80;40.12;100828.96;105581;1299;66965;-88
2023/10/14 08:58:18;;;;;;;;;;;;;;;20.80;40.05;100829.63;105250;1302;72584;-88
2023/10/14 09:00:44;;;;;;;;;;;;;;;20.81;40.01;100826.30;105238;1305;67307;-88
2023/10/14 09:03:10;;;;;;;;;;;;;;;20.82;40.02;100821.60;105465;1296;68424;-88
2023/10/14 09:08:22;;;;;;;;;;;;;;;20.82;40.07;100811.84;105575;1300;82317;-88
2023/10/14 09:10:52;;;;;;;;;;;;;;;20.83;39.97;100812.35;105598;1291;72262;31
2023/10/14 09:13:21;;;;;;;;;;;;;;;20.84;40.04;100812.55;105395;1304;67020;-88
2023/10/14 09:15:46;;;;;;;;;;;;;;;20.84;40.05;100809.09;105571;1299;67060;-88
2023/10/14 09:18:13;;;;;;;;;;;;;;;20.84;39.98;100803.81;105532;1299;66294;-88
2023/10/14 09:20:39;;;;;;;;;;;;;;;20.85;39.98;100807.95;105554;1298;66551;-88
2023/10/14 09:23:39;;;;;;;;;;;;;;;;;;;;;
2023/10/14 09:26:15;;;;;;;;;;;;;;;20.87;40.12;100799.38;105506;1298;70293;-88
2023/10/14 09:28:50;;;;;;;;;;;;;;;20.87;39.97;100787.16;105630;1299;67099;31
2023/10/14 09:31:16;;;;;;;;;;;;;;;20.89;40.02;100788.30;105502;1300;74365;-88
2023/10/14 09:33:41;;;;;;;;;;;;;;;20.89;40.05;100783.27;105607;1300;67282;-88
2023/10/14 09:36:11;;;;;;;;;;;;;;;20.90;39.90;100778.28;105504;1299;67802;-88
2023/10/14 09:38:37;;;;;;;;;;;;;;;20.90;40.04;100770.20;105535;1296;67651;-88
2023/10/14 09:41:03;;;;;;;;;;;;;;;20.91;39.91;100767.85;105569;1297;66927;-88
2023/10/14 09:43:46;;;;;;;;;;;;;;;20.91;39.99;100762.48;105644;1299;66716;-90
2023/10/14 09:46:12;;;;;;;;;;;;;;;20.92;39.88;100756.80;105470;1300;82231;-88
2023/10/14 09:48:38;;;;;;;;;;;;;;;20.93;39.99;100760.35;105578;1299;66500;-89
2023/10/14 09:51:05;;;;;;;;;;;;;;;20.94;39.98;100753.08;105658;1299;66837;-89
2023/10/14 09:53:34;;;;;;;;;;;;;;;20.95;39.96;100751.54;105717;1297;66664;-89
2023/10/14 09:56:09;;;;;;;;;;;;;;;20.96;40.00;100741.77;105699;1299;75331;-88
2023/10/14 09:58:43;;;;;;;;;;;;;;;20.97;40.02;100732.02;105730;1300;82182;31
2023/10/14 10:01:12;;;;;;;;;;;;;;;20.98;39.91;100727.52;105630;1300;71954;-88
2023/10/14 10:03:44;;;;;;;;;;;;;;;20.99;40.07;100726.40;105674;1293;66943;-89
2023/10/14 10:06:30;;;;;;;;;;;;;;;21.00;39.88;100720.20;105627;1296;67229;-89
2023/10/14 10:08:59;;;;;;;;;;;;;;;21.02;39.95;100720.94;105654;1300;75281;-89
2023/10/14 10:11:24;;;;;;;;;;;;;;;21.03;39.92;100717.61;105625;1298;83326;-89
2023/10/14 10:13:51;;;;;;;;;;;;;;;21.04;39.82;100712.55;105493;1301;66397;-89
2023/10/14 10:19:01;;;;;;;;;;;;;;;21.05;39.64;100704.68;105289;1302;66243;-88
2023/10/14 10:21:30;;;;;;;;;;;;;;;21.05;39.89;100694.61;105576;1296;66514;-88
2023/10/14 10:24:14;;;;;;;;;;;;;;;21.05;39.85;100691.69;105639;1299;82292;-88
2023/10/14 10:26:59;;;;;;;;;;;;;;;21.06;39.83;100689.19;105627;1300;72506;-88
2023/10/14 10:29:24;;;;;;;;;;;;;;;21.05;39.79;100681.45;105499;1298;68203;-89
2023/10/14 10:32:09;;;;;;;;;;;;;;;21.07;39.88;100680.58;105515;1299;67301;-88
2023/10/14 10:34:50;;;;;;;;;;;;;;;21.07;39.86;100671.58;105599;1292;74614;-88
2023/10/14 10:46:28;;;;;;;;;;;;;;;21.08;39.70;100654.04;105484;1300;67190;-90
2023/10/14 10:48:54;;;;;;;;;;;;;;;21.08;39.82;100646.00;105506;1300;73567;-89
2023/10/14 10:51:21;;;;;;;;;;;;;;;21.08;39.81;100648.05;105539;1300;67052;-90
2023/10/14 10:53:47;;;;;;;;;;;;;;;21.08;39.85;100642.42;105501;1296;66999;-89
2023/10/14 10:56:13;;;;;;;;;;;;;;;21.09;39.78;100641.09;105528;1296;67025;-89
2023/10/14 10:58:38;;;;;;;;;;;;;;;21.09;39.95;100637.15;105467;1292;67844;-88
2023/10/14 11:01:04;;;;;;;;;;;;;;;21.10;39.90;100633.16;105564;1300;66655;-89
2023/10/14 11:03:29;;;;;;;;;;;;;;;21.09;39.83;100622.73;105465;1301;67192;-89
2023/10/14 11:05:56;;;;;;;;;;;;;;;21.10;39.68;100619.55;105531;1297;66916;-88
2023/10/14 11:08:22;;;;;;;;;;;;;;;21.10;39.83;100618.83;105466;1300;66330;-88
2023/10/14 11:10:48;;;;;;;;;;;;;;;21.11;39.81;100610.19;105461;1300;66346;-88
2023/10/14 11:13:23;;;;;;;;;;;;;;;21.11;39.81;100606.00;105472;1300;67261;-93
2023/10/14 11:15:50;;;;;;;;;;;;;;;21.11;39.69;100601.09;105489;1300;71734;-89
2023/10/14 11:18:15;;;;;;;;;;;;;;;21.12;39.72;100593.31;105489;1300;67048;-88
2023/10/14 11:20:43;;;;;;;;;;;;;;;21.12;39.72;100590.80;105549;1300;67005;-88
2023/10/14 11:23:11;;;;;;;;;;;;;;;21.12;39.67;100588.92;105504;1300;67019;-88
2023/10/14 11:25:43;;;;;;;;;;;;;;;21.12;39.78;100583.85;105577;1300;82144;-89
2023/10/14 11:28:21;;;;;;;;;;;;;;;21.13;39.76;100581.70;105590;1300;72521;-92
2023/10/14 11:30:47;;;;;;;;;;;;;;;21.13;39.70;100579.25;105474;1300;66891;-89
2023/10/14 11:33:13;;;;;;;;;;;;;;;21.13;39.59;100573.83;105466;1300;66422;-89
2023/10/14 11:35:40;;;;;;;;;;;;;;;21.14;39.68;100571.21;105542;1301;66619;-88
2023/10/14 11:38:07;;;;;;;;;;;;;;;21.14;39.75;100567.16;105491;1303;66911;-89
2023/10/14 11:40:33;;;;;;;;;;;;;;;21.15;39.68;100570.35;105456;1302;66279;-89
2023/10/14 11:45:36;;;;;;;;;;;;;;;21.15;39.76;100566.92;105565;1299;67093;-89
2023/10/14 11:48:02;;;;;;;;;;;;;;;21.15;39.77;100559.61;105614;1296;75557;-89
2023/10/14 11:50:29;;;;;;;;;;;;;;;21.16;39.73;100557.15;105549;1299;67077;-90
2023/10/14 11:52:57;;;;;;;;;;;;;;;21.16;39.62;100553.92;105527;1302;66869;-90
2023/10/14 11:55:25;;;;;;;;;;;;;;;21.17;39.72;100550.40;105554;1300;66963;-88
2023/10/14 11:57:53;;;;;;;;;;;;;;;21.17;39.62;100554.02;105594;1299;67634;-88
2023/10/14 12:00:20;;;;;;;;;;;;;;;21.17;39.77;100547.99;105604;1300;74404;-88
2023/10/14 12:02:48;;;;;;;;;;;;;;;21.19;39.63;100544.61;105589;1297;82351;-88
2023/10/14 12:05:17;;;;;;;;;;;;;;;21.19;39.57;100540.00;105626;1299;72480;-88
2023/10/14 12:07:43;;;;;;;;;;;;;;;21.19;39.46;100536.89;105628;1299;66947;-88
2023/10/14 12:10:09;;;;;;;;;;;;;;;21.19;39.55;100530.64;105610;1299;67318;-89
2023/10/14 12:12:34;;;;;;;;;;;;;;;21.20;39.57;100527.45;105463;1300;66251;-88
2023/10/14 12:15:00;;;;;;;;;;;;;;;21.20;39.53;100524.09;105541;1300;67026;-88
2023/10/14 12:17:29;;;;;;;;;;;;;;;21.20;39.75;100521.16;105561;1295;67259;-88
2023/10/14 12:19:57;;;;;;;;;;;;;;;21.21;39.68;100513.80;105475;1298;67138;-89
2023/10/14 12:22:22;;;;;;;;;;;;;;;21.21;39.69;100512.41;105579;1298;67192;-89
2023/10/14 12:24:48;;;;;;;;;;;;;;;21.22;39.60;100506.17;105531;1299;67647;-89
2023/10/14 12:31:06;;;;;;;;;;;;;;;21.23;39.63;100498.40;105470;1300;72432;-93
2023/10/14 12:33:34;;;;;;;;;;;;;;;21.24;39.67;100496.96;105424;1300;66950;-89
2023/10/14 12:36:06;;;;;;;;;;;;;;;21.24;39.57;100493.08;105431;1300;67030;-89
2023/10/14 12:38:32;;;;;;;;;;;;;;;21.23;39.65;100490.77;105540;1297;74579;-89
2023/10/14 12:40:58;;;;;;;;;;;;;;;21.24;39.67;100490.63;105627;1296;67076;-88
2023/10/14 12:43:33;;;;;;;;;;;;;;;21.25;39.45;100486.83;105626;1300;67050;-89
2023/10/14 12:49:05;;;;;;;;;;;;;;;21.26;39.53;100479.73;104797;1292;67359;31
2023/10/14 12:51:33;;;;;;;;;;;;;;;21.27;39.66;100482.64;105401;1300;74592;-88
2023/10/14 12:54:00;;;;;;;;;;;;;;;21.27;39.61;100478.85;105565;1299;82517;-88
2023/10/14 12:56:26;;;;;;;;;;;;;;;21.28;39.78;100474.20;105610;1295;72708;-88
2023/10/14 12:58:52;;;;;;;;;;;;;;;21.29;39.60;100471.58;105498;1299;67121;-89
2023/10/14 13:01:18;;;;;;;;;;;;;;;21.29;39.58;100470.41;105588;1293;66532;-88
2023/10/14 13:06:15;;;;;;;;;;;;;;;21.32;39.69;100467.34;105530;1298;81660;-89
2023/10/14 13:08:41;;;;;;;;;;;;;;;21.32;39.53;100461.34;105574;1297;67339;-89
2023/10/14 13:11:07;;;;;;;;;;;;;;;21.33;39.65;100458.31;105539;1294;68115;-89
2023/10/14 13:13:34;;;;;;;;;;;;;;;21.35;39.50;100452.17;105636;1298;66977;-89
2023/10/14 13:16:00;;;;;;;;;;;;;;;21.35;39.57;100447.66;105649;1292;66327;-88
2023/10/14 13:18:25;;;;;;;;;;;;;;;21.35;39.53;100442.40;105476;1300;66860;-89
2023/10/14 13:20:51;;;;;;;;;;;;;;;21.36;39.67;100442.30;105546;1299;66928;-89
2023/10/14 13:23:16;;;;;;;;;;;;;;;21.36;39.55;100441.17;105620;1298;67503;-89
2023/10/14 13:25:45;;;;;;;;;;;;;;;21.36;39.55;100437.95;105519;1299;66976;-89
2023/10/14 13:28:11;;;;;;;;;;;;;;;21.36;39.55;100437.95;105599;1299;82143;-89
2023/10/14 13:30:37;;;;;;;;;;;;;;;21.35;39.49;100434.27;105563;1299;66918;-89
2023/10/14 13:33:05;;;;;;;;;;;;;;;21.35;39.47;100429.55;105514;1297;67706;-89
2023/10/14 13:35:33;;;;;;;;;;;;;;;21.34;39.51;100424.91;105624;1299;66860;-89
2023/10/14 13:37:59;;;;;;;;;;;;;;;21.33;39.58;100425.35;105447;1300;74348;-89